createdAt,value
2023-05-06T00:00:10.146Z,65.43
2023-05-06T00:01:10.261Z,65.27
2023-05-06T00:02:10.501Z,65.37
2023-05-06T00:03:10.749Z,65.70
2023-05-06T00:04:10.964Z,66.05
2023-05-06T00:05:11.511Z,66.06
2023-05-06T00:06:11.173Z,65.97
2023-05-06T00:07:11.264Z,66.23
2023-05-06T00:08:11.275Z,65.92
2023-05-06T00:09:11.318Z,65.70
2023-05-06T00:10:11.398Z,66.15
2023-05-06T00:11:11.434Z,66.44
2023-05-06T00:12:11.613Z,66.86
2023-05-06T00:13:11.567Z,67.24
2023-05-06T00:14:11.524Z,67.13
2023-05-06T00:15:11.858Z,67.24
2023-05-06T00:16:11.586Z,67.87
2023-05-06T00:17:11.571Z,67.87
2023-05-06T00:18:11.627Z,67.96
2023-05-06T00:19:11.641Z,68.05
2023-05-06T00:20:11.687Z,67.39
2023-05-06T00:21:11.756Z,67.37
2023-05-06T00:22:11.810Z,66.67
2023-05-06T00:23:11.871Z,66.38
2023-05-06T00:24:11.890Z,66.45
2023-05-06T00:25:11.976Z,66.02
2023-05-06T00:26:11.891Z,65.76
2023-05-06T00:27:11.901Z,66.25
2023-05-06T00:28:11.953Z,65.53
2023-05-06T00:29:11.869Z,66.20
2023-05-06T00:30:11.875Z,66.18
2023-05-06T00:31:11.856Z,66.78
2023-05-06T00:32:11.903Z,67.47
2023-05-06T00:33:11.855Z,67.48
2023-05-06T00:34:11.831Z,66.88
2023-05-06T00:35:11.930Z,66.98
2023-05-06T00:36:11.823Z,67.48
2023-05-06T00:37:11.811Z,67.87
2023-05-06T00:38:11.819Z,67.27
2023-05-06T00:39:11.834Z,67.06
2023-05-06T00:40:11.849Z,66.79
2023-05-06T00:41:11.865Z,65.88
2023-05-06T00:42:11.863Z,65.66
2023-05-06T00:43:11.847Z,65.16
2023-05-06T00:44:11.898Z,64.53
2023-05-06T00:45:12.120Z,64.81
2023-05-06T00:46:11.881Z,65.21
2023-05-06T00:47:11.804Z,65.35
2023-05-06T00:48:11.822Z,65.05
2023-05-06T00:49:11.780Z,64.38
2023-05-06T00:50:11.852Z,63.82
2023-05-06T00:51:11.834Z,63.71
2023-05-06T00:52:11.811Z,64.14
2023-05-06T00:53:11.862Z,64.44
2023-05-06T00:54:11.905Z,64.79
2023-05-06T00:55:11.993Z,64.54
2023-05-06T00:56:12.134Z,64.71
2023-05-06T00:57:12.288Z,64.39
2023-05-06T00:58:12.417Z,64.68
2023-05-06T00:59:12.566Z,64.13
2023-05-06T01:00:12.693Z,64.04
2023-05-06T01:01:12.745Z,64.03
2023-05-06T01:02:12.802Z,63.93
2023-05-06T01:03:12.910Z,64.17
2023-05-06T01:04:12.898Z,64.33
2023-05-06T01:05:12.896Z,64.30
2023-05-06T01:06:12.851Z,64.50
2023-05-06T01:07:12.888Z,64.98
2023-05-06T01:08:12.932Z,65.43
2023-05-06T01:09:12.996Z,65.64
2023-05-06T01:10:13.194Z,65.91
2023-05-06T01:11:15.632Z,66.26
2023-05-06T01:12:13.443Z,66.39
2023-05-06T01:13:13.570Z,66.66
2023-05-06T01:14:13.524Z,66.71
2023-05-06T01:15:13.598Z,66.88
2023-05-06T01:16:13.749Z,66.78
2023-05-06T01:17:13.843Z,66.64
2023-05-06T01:18:13.681Z,67.48
2023-05-06T01:19:13.710Z,67.65
2023-05-06T01:20:13.753Z,67.22
2023-05-06T01:21:13.821Z,67.84
2023-05-06T01:22:13.892Z,67.66
2023-05-06T01:23:13.973Z,67.48
2023-05-06T01:24:14.026Z,67.16
2023-05-06T01:25:14.106Z,67.32
2023-05-06T01:26:14.156Z,66.98
2023-05-06T01:27:14.223Z,67.22
2023-05-06T01:28:14.285Z,66.79
2023-05-06T01:29:14.321Z,66.24
2023-05-06T01:30:14.362Z,66.17
2023-05-06T01:31:14.570Z,65.72
2023-05-06T01:32:14.870Z,65.54
2023-05-06T01:33:14.851Z,65.30
2023-05-06T01:34:14.995Z,65.98
2023-05-06T01:35:15.141Z,65.57
2023-05-06T01:36:15.290Z,64.87
2023-05-06T01:37:15.447Z,65.15
2023-05-06T01:38:15.599Z,65.97
2023-05-06T01:39:15.760Z,66.10
2023-05-06T01:40:15.831Z,66.58
2023-05-06T01:41:15.848Z,66.93
2023-05-06T01:42:15.901Z,67.83
2023-05-06T01:43:15.962Z,67.20
2023-05-06T01:44:16.019Z,67.54
2023-05-06T01:45:16.089Z,67.65
2023-05-06T01:46:16.189Z,67.18
2023-05-06T01:47:16.206Z,67.50
2023-05-06T01:48:16.237Z,67.40
2023-05-06T01:49:16.271Z,66.82
2023-05-06T01:50:16.326Z,67.01
2023-05-06T01:51:16.391Z,67.00
2023-05-06T01:52:16.442Z,66.43
2023-05-06T01:53:16.479Z,66.91
2023-05-06T01:54:16.490Z,66.90
2023-05-06T01:55:16.507Z,66.86
2023-05-06T01:56:16.516Z,66.97
2023-05-06T01:57:16.546Z,66.40
2023-05-06T01:58:16.600Z,66.31
2023-05-06T01:59:16.654Z,66.21
2023-05-06T02:00:16.699Z,66.01
2023-05-06T02:01:16.777Z,65.70
2023-05-06T02:02:16.806Z,65.94
2023-05-06T02:03:16.936Z,65.67
2023-05-06T02:04:16.944Z,65.95
2023-05-06T02:05:16.940Z,65.77
2023-05-06T02:06:16.988Z,65.62
2023-05-06T02:07:17.020Z,65.93
2023-05-06T02:08:17.075Z,65.33
2023-05-06T02:09:17.051Z,65.50
2023-05-06T02:10:17.085Z,65.00
2023-05-06T02:11:17.101Z,66.13
2023-05-06T02:12:17.108Z,65.22
2023-05-06T02:13:17.205Z,65.24
2023-05-06T02:14:17.118Z,64.67
2023-05-06T02:15:17.133Z,65.52
2023-05-06T02:16:17.158Z,65.59
2023-05-06T02:17:17.142Z,65.99
2023-05-06T02:18:17.135Z,66.77
2023-05-06T02:19:17.176Z,66.75
2023-05-06T02:20:17.200Z,67.41
2023-05-06T02:21:17.679Z,67.64
2023-05-06T02:22:17.131Z,66.86
2023-05-06T02:23:17.123Z,66.57
2023-05-06T02:24:17.161Z,66.52
2023-05-06T02:25:17.124Z,67.06
2023-05-06T02:26:17.190Z,66.75
2023-05-06T02:27:17.238Z,66.11
2023-05-06T02:28:17.306Z,65.46
2023-05-06T02:29:17.345Z,65.69
2023-05-06T02:30:17.365Z,65.28
2023-05-06T02:31:17.393Z,65.06
2023-05-06T02:32:17.388Z,64.48
2023-05-06T02:33:17.411Z,65.12
2023-05-06T02:34:17.492Z,65.06
2023-05-06T02:35:17.749Z,64.24
2023-05-06T02:36:17.908Z,63.89
2023-05-06T02:37:18.067Z,64.99
2023-05-06T02:38:18.221Z,64.73
2023-05-06T02:39:18.354Z,64.50
2023-05-06T02:40:18.482Z,64.96
2023-05-06T02:41:18.617Z,65.04
2023-05-06T02:42:18.829Z,66.03
2023-05-06T02:43:18.878Z,66.67
2023-05-06T02:44:19.141Z,66.73
2023-05-06T02:45:19.252Z,66.85
2023-05-06T02:46:19.445Z,66.20
2023-05-06T02:47:19.498Z,66.75
2023-05-06T02:48:19.610Z,66.97
2023-05-06T02:49:19.773Z,67.09
2023-05-06T02:50:19.907Z,67.34
2023-05-06T02:51:20.072Z,67.21
2023-05-06T02:52:20.346Z,68.00
2023-05-06T02:53:20.420Z,68.59
2023-05-06T02:54:20.598Z,68.68
2023-05-06T02:55:20.770Z,68.38
2023-05-06T02:56:20.906Z,68.35
2023-05-06T02:57:21.056Z,67.41
2023-05-06T02:58:21.212Z,67.06
2023-05-06T02:59:21.374Z,67.13
2023-05-06T03:00:21.529Z,66.39
2023-05-06T03:01:21.661Z,66.20
2023-05-06T03:02:21.780Z,66.07
2023-05-06T03:03:21.840Z,66.58
2023-05-06T03:04:22.007Z,65.87
2023-05-06T03:05:22.067Z,65.91
2023-05-06T03:06:22.218Z,65.71
2023-05-06T03:07:22.371Z,65.17
2023-05-06T03:08:22.657Z,65.03
2023-05-06T03:09:22.699Z,65.42
2023-05-06T03:10:22.848Z,64.97
2023-05-06T03:11:22.967Z,64.81
2023-05-06T03:12:23.132Z,65.06
2023-05-06T03:13:23.241Z,65.54
2023-05-06T03:14:23.396Z,65.63
2023-05-06T03:15:23.540Z,65.22
2023-05-06T03:16:23.677Z,65.11
2023-05-06T03:17:23.728Z,64.60
2023-05-06T03:18:23.864Z,63.78
2023-05-06T03:19:23.982Z,63.88
2023-05-06T03:20:24.216Z,63.73
2023-05-06T03:21:24.387Z,64.01
2023-05-06T03:22:24.474Z,64.11
2023-05-06T03:23:24.646Z,63.68
2023-05-06T03:24:24.783Z,64.21
2023-05-06T03:25:24.960Z,63.87
2023-05-06T03:26:25.047Z,63.76
2023-05-06T03:27:25.286Z,63.70
2023-05-06T03:28:25.394Z,64.02
2023-05-06T03:29:25.544Z,63.98
2023-05-06T03:30:25.679Z,63.95
2023-05-06T03:31:25.901Z,64.28
2023-05-06T03:32:25.980Z,64.86
2023-05-06T03:33:26.128Z,64.43
2023-05-06T03:34:26.290Z,64.40
2023-05-06T03:35:26.502Z,64.48
2023-05-06T03:36:26.655Z,64.72
2023-05-06T03:37:26.822Z,64.90
2023-05-06T03:38:27.005Z,64.96
2023-05-06T03:39:27.186Z,64.94
2023-05-06T03:40:27.477Z,64.87
2023-05-06T03:41:27.516Z,64.69
2023-05-06T03:42:27.635Z,64.19
2023-05-06T03:43:27.808Z,64.42
2023-05-06T03:44:27.970Z,64.72
2023-05-06T03:45:28.125Z,65.12
2023-05-06T03:46:28.356Z,64.74
2023-05-06T03:47:28.470Z,65.20
2023-05-06T03:48:28.533Z,65.07
2023-05-06T03:49:28.638Z,64.57
2023-05-06T03:50:28.822Z,64.63
2023-05-06T03:51:28.929Z,64.88
2023-05-06T03:52:28.984Z,64.72
2023-05-06T03:53:29.107Z,64.74
2023-05-06T03:54:29.242Z,64.67
2023-05-06T03:55:29.362Z,64.51
2023-05-06T03:56:29.547Z,64.47
2023-05-06T03:57:29.599Z,64.40
2023-05-06T03:58:29.551Z,64.01
2023-05-06T03:59:29.521Z,63.96
2023-05-06T04:00:29.484Z,64.34
2023-05-06T04:01:29.441Z,64.56
2023-05-06T04:02:29.528Z,64.10
2023-05-06T04:03:29.408Z,64.61
2023-05-06T04:04:29.366Z,64.76
2023-05-06T04:05:29.324Z,64.83
2023-05-06T04:06:29.277Z,64.77
2023-05-06T04:07:29.245Z,64.76
2023-05-06T04:08:29.214Z,64.76
2023-05-06T04:09:29.174Z,64.74
2023-05-06T04:10:29.165Z,65.40
2023-05-06T04:11:29.946Z,64.90
2023-05-06T04:12:29.232Z,65.07
2023-05-06T04:13:29.051Z,64.75
2023-05-06T04:14:29.019Z,64.77
2023-05-06T04:15:28.983Z,64.52
2023-05-06T04:16:28.942Z,64.36
2023-05-06T04:17:28.947Z,64.51
2023-05-06T04:18:28.872Z,64.74
2023-05-06T04:19:28.833Z,65.26
2023-05-06T04:20:28.855Z,64.92
2023-05-06T04:21:28.764Z,64.54
2023-05-06T04:22:28.716Z,65.21
2023-05-06T04:23:28.688Z,65.12
2023-05-06T04:24:28.634Z,65.37
2023-05-06T04:25:28.614Z,66.40
2023-05-06T04:26:28.575Z,65.18
2023-05-06T04:27:28.541Z,65.62
2023-05-06T04:28:28.568Z,65.73
2023-05-06T04:29:28.489Z,66.20
2023-05-06T04:30:28.508Z,65.98
2023-05-06T04:31:28.503Z,65.60
2023-05-06T04:32:28.418Z,65.47
2023-05-06T04:33:28.383Z,65.64
2023-05-06T04:34:28.345Z,65.38
2023-05-06T04:35:28.314Z,65.12
2023-05-06T04:36:28.276Z,65.55
2023-05-06T04:37:28.269Z,65.46
2023-05-06T04:38:28.210Z,65.31
2023-05-06T04:39:28.177Z,66.24
2023-05-06T04:40:28.136Z,65.46
2023-05-06T04:41:28.096Z,65.92
2023-05-06T04:42:28.065Z,65.58
2023-05-06T04:43:29.032Z,65.13
2023-05-06T04:44:28.027Z,65.02
2023-05-06T04:45:27.988Z,65.06
2023-05-06T04:46:27.915Z,65.35
2023-05-06T04:47:27.922Z,65.13
2023-05-06T04:48:27.842Z,65.16
2023-05-06T04:49:27.808Z,65.46
2023-05-06T04:50:27.770Z,64.93
2023-05-06T04:51:27.741Z,65.40
2023-05-06T04:52:27.704Z,65.29
2023-05-06T04:53:27.703Z,65.09
2023-05-06T04:54:27.682Z,65.39
2023-05-06T04:55:27.627Z,65.67
2023-05-06T04:56:27.630Z,66.26
2023-05-06T04:57:27.580Z,66.42
2023-05-06T04:58:27.569Z,66.26
2023-05-06T04:59:28.223Z,66.70
2023-05-06T05:00:27.505Z,67.89
2023-05-06T05:01:27.579Z,67.47
2023-05-06T05:02:27.567Z,67.31
2023-05-06T05:03:27.564Z,68.18
2023-05-06T05:04:27.408Z,67.40
2023-05-06T05:05:27.364Z,67.32
2023-05-06T05:06:27.330Z,66.85
2023-05-06T05:07:27.312Z,66.63
2023-05-06T05:08:27.269Z,66.79
2023-05-06T05:09:27.306Z,66.58
2023-05-06T05:10:27.286Z,66.54
2023-05-06T05:11:27.296Z,66.77
2023-05-06T05:12:27.286Z,66.44
2023-05-06T05:13:27.316Z,66.12
2023-05-06T05:14:27.311Z,66.09
2023-05-06T05:15:27.311Z,65.81
2023-05-06T05:16:27.373Z,65.41
2023-05-06T05:17:27.332Z,64.97
2023-05-06T05:18:27.376Z,65.62
2023-05-06T05:19:27.494Z,65.08
2023-05-06T05:20:27.708Z,65.39
2023-05-06T05:21:27.894Z,65.36
2023-05-06T05:22:28.032Z,65.23
2023-05-06T05:23:28.211Z,64.84
2023-05-06T05:24:28.320Z,65.27
2023-05-06T05:25:28.431Z,64.89
2023-05-06T05:26:28.614Z,65.08
2023-05-06T05:27:28.757Z,65.35
2023-05-06T05:28:28.922Z,65.64
2023-05-06T05:29:29.023Z,64.89
2023-05-06T05:30:29.177Z,64.92
2023-05-06T05:31:29.367Z,65.15
2023-05-06T05:32:29.387Z,65.73
2023-05-06T05:33:29.344Z,65.70
2023-05-06T05:34:29.282Z,65.50
2023-05-06T05:35:29.252Z,65.23
2023-05-06T05:36:29.278Z,64.95
2023-05-06T05:37:29.196Z,65.47
2023-05-06T05:38:29.213Z,64.96
2023-05-06T05:39:29.125Z,65.11
2023-05-06T05:40:29.099Z,64.90
2023-05-06T05:41:29.072Z,65.01
2023-05-06T05:42:29.039Z,65.13
2023-05-06T05:43:29.019Z,65.63
2023-05-06T05:44:28.989Z,65.48
2023-05-06T05:45:28.974Z,65.45
2023-05-06T05:46:28.961Z,66.05
2023-05-06T05:47:28.940Z,65.87
2023-05-06T05:48:28.992Z,65.55
2023-05-06T05:49:28.868Z,65.48
2023-05-06T05:50:28.849Z,65.36
2023-05-06T05:51:28.822Z,65.50
2023-05-06T05:52:28.791Z,65.81
2023-05-06T05:53:28.759Z,65.72
2023-05-06T05:54:28.729Z,66.08
2023-05-06T05:55:28.705Z,66.35
2023-05-06T05:56:28.683Z,66.62
2023-05-06T05:57:28.645Z,66.15
2023-05-06T05:58:28.607Z,66.17
2023-05-06T05:59:28.572Z,65.96
2023-05-06T06:00:28.541Z,65.79
2023-05-06T06:01:28.515Z,65.90
2023-05-06T06:02:28.571Z,65.63
2023-05-06T06:03:28.542Z,66.02
2023-05-06T06:04:28.518Z,66.41
2023-05-06T06:05:28.430Z,65.97
2023-05-06T06:06:28.385Z,66.12
2023-05-06T06:07:28.360Z,66.64
2023-05-06T06:08:28.335Z,66.46
2023-05-06T06:09:28.303Z,66.36
2023-05-06T06:10:28.288Z,67.27
2023-05-06T06:11:28.258Z,67.66
2023-05-06T06:12:28.247Z,67.76
2023-05-06T06:13:29.137Z,67.33
2023-05-06T06:14:28.181Z,67.29
2023-05-06T06:15:28.173Z,67.68
2023-05-06T06:16:28.173Z,67.62
2023-05-06T06:17:28.140Z,67.07
2023-05-06T06:18:28.086Z,67.08
2023-05-06T06:19:28.045Z,66.84
2023-05-06T06:20:28.087Z,66.71
2023-05-06T06:21:28.004Z,66.41
2023-05-06T06:22:27.948Z,66.47
2023-05-06T06:23:27.923Z,66.48
2023-05-06T06:24:27.874Z,66.70
2023-05-06T06:25:27.849Z,66.85
2023-05-06T06:26:27.816Z,66.52
2023-05-06T06:27:27.778Z,67.13
2023-05-06T06:28:27.769Z,66.97
2023-05-06T06:29:27.728Z,67.49
2023-05-06T06:30:27.714Z,67.66
2023-05-06T06:31:27.701Z,67.33
2023-05-06T06:32:27.702Z,66.99
2023-05-06T06:33:27.651Z,66.95
2023-05-06T06:34:27.636Z,67.30
2023-05-06T06:35:27.613Z,67.19
2023-05-06T06:36:27.657Z,67.07
2023-05-06T06:37:27.566Z,67.18
2023-05-06T06:38:27.531Z,66.84
2023-05-06T06:39:27.500Z,66.47
2023-05-06T06:40:27.476Z,66.30
2023-05-06T06:41:27.420Z,65.74
2023-05-06T06:42:27.380Z,65.58
2023-05-06T06:43:27.335Z,65.28
2023-05-06T06:44:27.310Z,65.23
2023-05-06T06:45:27.268Z,64.69
2023-05-06T06:46:27.214Z,64.71
2023-05-06T06:47:27.188Z,64.89
2023-05-06T06:48:27.142Z,64.06
2023-05-06T06:49:27.098Z,63.92
2023-05-06T06:50:27.117Z,64.34
2023-05-06T06:51:27.121Z,64.09
2023-05-06T06:52:27.159Z,64.26
2023-05-06T06:53:27.170Z,64.61
2023-05-06T06:54:27.172Z,64.48
2023-05-06T06:55:27.195Z,64.02
2023-05-06T06:56:27.205Z,64.44
2023-05-06T06:57:27.232Z,64.53
2023-05-06T06:58:27.251Z,64.14
2023-05-06T06:59:27.249Z,64.69
2023-05-06T07:00:27.270Z,64.68
2023-05-06T07:01:27.332Z,64.53
2023-05-06T07:02:27.344Z,64.82
2023-05-06T07:03:27.261Z,64.51
2023-05-06T07:04:27.263Z,64.69
2023-05-06T07:05:27.248Z,64.75
2023-05-06T07:06:27.222Z,63.96
2023-05-06T07:07:27.225Z,64.32
2023-05-06T07:08:27.468Z,64.09
2023-05-06T07:09:27.216Z,63.92
2023-05-06T07:10:27.257Z,63.40
2023-05-06T07:11:27.201Z,63.56
2023-05-06T07:12:27.190Z,62.60
2023-05-06T07:13:27.201Z,62.23
2023-05-06T07:14:27.758Z,62.23
2023-05-06T07:15:27.190Z,61.83
2023-05-06T07:16:27.221Z,62.56
2023-05-06T07:17:27.238Z,62.06
2023-05-06T07:18:27.196Z,62.47
2023-05-06T07:19:27.201Z,62.64
2023-05-06T07:20:27.212Z,62.34
2023-05-06T07:21:27.218Z,61.96
2023-05-06T07:22:27.212Z,61.87
2023-05-06T07:23:27.192Z,62.40
2023-05-06T07:24:27.241Z,62.68
2023-05-06T07:25:27.175Z,62.07
2023-05-06T07:26:27.164Z,60.99
2023-05-06T07:27:27.156Z,60.80
2023-05-06T07:28:27.122Z,60.92
2023-05-06T07:29:27.051Z,61.02
2023-05-06T07:30:27.038Z,60.63
2023-05-06T07:31:27.008Z,61.91
2023-05-06T07:32:26.960Z,61.93
2023-05-06T07:33:26.884Z,61.95
2023-05-06T07:34:26.840Z,62.52
2023-05-06T07:35:26.811Z,61.66
2023-05-06T07:36:26.758Z,61.45
2023-05-06T07:37:26.720Z,61.27
2023-05-06T07:38:26.663Z,61.55
2023-05-06T07:39:26.610Z,61.82
2023-05-06T07:40:26.635Z,61.53
2023-05-06T07:41:26.500Z,61.71
2023-05-06T07:42:26.470Z,61.54
2023-05-06T07:43:26.393Z,61.66
2023-05-06T07:44:26.347Z,61.57
2023-05-06T07:45:26.295Z,61.52
2023-05-06T07:46:26.366Z,61.47
2023-05-06T07:47:26.346Z,62.06
2023-05-06T07:48:26.194Z,61.71
2023-05-06T07:49:26.096Z,62.14
2023-05-06T07:50:26.041Z,61.69
2023-05-06T07:51:25.984Z,61.13
2023-05-06T07:52:25.953Z,61.09
2023-05-06T07:53:25.913Z,60.92
2023-05-06T07:54:25.890Z,60.82
2023-05-06T07:55:25.823Z,60.76
2023-05-06T07:56:25.853Z,60.70
2023-05-06T07:57:25.743Z,60.84
2023-05-06T07:58:25.698Z,60.81
2023-05-06T07:59:25.660Z,60.58
2023-05-06T08:00:25.612Z,60.58
2023-05-06T08:01:25.601Z,60.28
2023-05-06T08:02:25.744Z,59.27
2023-05-06T08:03:25.565Z,59.48
2023-05-06T08:04:25.505Z,59.46
2023-05-06T08:05:25.379Z,59.60
2023-05-06T08:06:25.349Z,59.72
2023-05-06T08:07:25.305Z,59.92
2023-05-06T08:08:25.224Z,60.16
2023-05-06T08:09:25.177Z,60.61
2023-05-06T08:10:25.127Z,61.24
2023-05-06T08:11:25.082Z,61.29
2023-05-06T08:12:25.132Z,61.22
2023-05-06T08:13:25.005Z,61.39
2023-05-06T08:14:24.926Z,61.22
2023-05-06T08:15:24.874Z,61.30
2023-05-06T08:16:25.732Z,61.74
2023-05-06T08:17:24.818Z,61.64
2023-05-06T08:18:24.723Z,61.51
2023-05-06T08:19:24.626Z,61.43
2023-05-06T08:20:24.579Z,61.52
2023-05-06T08:21:24.512Z,61.73
2023-05-06T08:22:24.492Z,61.63
2023-05-06T08:23:24.398Z,61.68
2023-05-06T08:24:24.335Z,61.90
2023-05-06T08:25:24.269Z,62.29
2023-05-06T08:26:24.204Z,62.03
2023-05-06T08:27:24.142Z,61.66
2023-05-06T08:28:25.273Z,61.73
2023-05-06T08:29:24.015Z,61.82
2023-05-06T08:30:23.959Z,61.65
2023-05-06T08:31:23.915Z,61.46
2023-05-06T08:32:23.908Z,60.70
2023-05-06T08:33:23.783Z,60.49
2023-05-06T08:34:23.730Z,60.01
2023-05-06T08:35:23.664Z,59.69
2023-05-06T08:36:23.597Z,58.84
2023-05-06T08:37:23.562Z,59.26
2023-05-06T08:38:23.756Z,58.72
2023-05-06T08:39:23.883Z,59.49
2023-05-06T08:40:24.028Z,59.54
2023-05-06T08:41:24.160Z,60.04
2023-05-06T08:42:24.294Z,59.68
2023-05-06T08:43:24.435Z,59.59
2023-05-06T08:44:24.588Z,59.71
2023-05-06T08:45:25.504Z,59.81
2023-05-06T08:46:24.846Z,59.85
2023-05-06T08:47:24.719Z,59.95
2023-05-06T08:48:24.672Z,59.18
2023-05-06T08:49:24.659Z,57.97
2023-05-06T08:50:24.657Z,58.20
2023-05-06T08:51:26.075Z,58.07
2023-05-06T08:52:24.602Z,58.19
2023-05-06T08:53:24.580Z,58.20
2023-05-06T08:54:24.569Z,57.98
2023-05-06T08:55:24.569Z,57.64
2023-05-06T08:56:24.553Z,57.71
2023-05-06T08:57:24.544Z,58.06
2023-05-06T08:58:24.525Z,58.51
2023-05-06T08:59:24.527Z,58.40
2023-05-06T09:00:24.597Z,58.56
2023-05-06T09:01:24.608Z,58.87
2023-05-06T09:02:24.617Z,59.30
2023-05-06T09:03:24.584Z,59.75
2023-05-06T09:04:24.477Z,58.66
2023-05-06T09:05:24.461Z,58.21
2023-05-06T09:06:24.442Z,57.95
2023-05-06T09:07:24.433Z,57.74
2023-05-06T09:08:24.418Z,57.85
2023-05-06T09:09:25.325Z,58.23
2023-05-06T09:10:24.247Z,57.24
2023-05-06T09:11:24.197Z,56.87
2023-05-06T09:12:24.092Z,57.14
2023-05-06T09:13:24.005Z,57.78
2023-05-06T09:14:23.919Z,58.30
2023-05-06T09:15:23.868Z,57.09
2023-05-06T09:16:23.853Z,58.09
2023-05-06T09:17:23.991Z,58.17
2023-05-06T09:18:23.724Z,56.65
2023-05-06T09:19:23.725Z,56.35
2023-05-06T09:20:23.711Z,57.13
2023-05-06T09:21:23.675Z,56.55
2023-05-06T09:22:23.656Z,57.27
2023-05-06T09:23:23.631Z,56.86
2023-05-06T09:24:23.586Z,56.37
2023-05-06T09:25:23.566Z,56.39
2023-05-06T09:26:23.507Z,56.58
2023-05-06T09:27:23.445Z,57.10
2023-05-06T09:28:23.414Z,55.79
2023-05-06T09:29:23.377Z,55.48
2023-05-06T09:30:23.351Z,54.73
2023-05-06T09:31:23.351Z,54.29
2023-05-06T09:32:23.296Z,54.73
2023-05-06T09:33:23.239Z,55.43
2023-05-06T09:34:23.201Z,54.74
2023-05-06T09:35:23.173Z,54.58
2023-05-06T09:36:23.150Z,54.11
2023-05-06T09:37:23.101Z,54.96
2023-05-06T09:38:23.066Z,53.81
2023-05-06T09:39:23.077Z,54.59
2023-05-06T09:40:22.994Z,55.17
2023-05-06T09:41:23.089Z,54.86
2023-05-06T09:42:23.230Z,54.13
2023-05-06T09:43:23.342Z,54.36
2023-05-06T09:44:23.476Z,53.13
2023-05-06T09:45:23.611Z,53.08
2023-05-06T09:46:23.786Z,52.85
2023-05-06T09:47:23.874Z,52.96
2023-05-06T09:48:24.036Z,52.51
2023-05-06T09:49:24.090Z,53.70
2023-05-06T09:50:24.191Z,53.99
2023-05-06T09:51:24.274Z,54.15
2023-05-06T09:52:24.339Z,53.65
2023-05-06T09:53:24.422Z,53.06
2023-05-06T09:54:24.549Z,52.01
2023-05-06T09:55:24.632Z,52.57
2023-05-06T09:56:24.763Z,52.70
2023-05-06T09:57:24.855Z,52.70
2023-05-06T09:58:24.957Z,52.89
2023-05-06T09:59:25.045Z,52.93
2023-05-06T10:00:25.137Z,52.55
2023-05-06T10:01:35.326Z,52.59
2023-05-06T10:02:26.308Z,52.52
2023-05-06T10:03:25.229Z,53.28
2023-05-06T10:04:26.410Z,52.60
2023-05-06T10:05:25.069Z,52.34
2023-05-06T10:06:24.895Z,52.22
2023-05-06T10:07:24.821Z,52.61
2023-05-06T10:08:24.741Z,52.29
2023-05-06T10:09:24.654Z,51.59
2023-05-06T10:10:25.568Z,52.85
2023-05-06T10:11:24.485Z,52.38
2023-05-06T10:12:24.433Z,51.62
2023-05-06T10:13:24.412Z,50.43
2023-05-06T10:14:24.371Z,52.19
2023-05-06T10:15:24.206Z,50.22
2023-05-06T10:16:24.311Z,50.25
2023-05-06T10:17:24.365Z,51.37
2023-05-06T10:18:24.479Z,54.56
2023-05-06T10:19:24.628Z,52.90
2023-05-06T10:20:24.838Z,51.37
2023-05-06T10:21:24.815Z,51.78
2023-05-06T10:22:24.915Z,50.87
2023-05-06T10:23:25.038Z,50.73
2023-05-06T10:24:25.090Z,50.78
2023-05-06T10:25:25.151Z,51.95
2023-05-06T10:26:25.281Z,52.30
2023-05-06T10:27:25.392Z,51.67
2023-05-06T10:28:31.148Z,51.26
2023-05-06T10:29:26.364Z,50.96
2023-05-06T10:30:25.229Z,51.02
2023-05-06T10:31:25.154Z,51.37
2023-05-06T10:32:25.009Z,51.47
2023-05-06T10:33:24.876Z,51.41
2023-05-06T10:34:24.746Z,51.10
2023-05-06T10:35:24.625Z,52.49
2023-05-06T10:36:24.661Z,50.98
2023-05-06T10:37:24.390Z,53.97
2023-05-06T10:38:24.511Z,52.31
2023-05-06T10:39:24.601Z,53.40
2023-05-06T10:40:24.706Z,52.55
2023-05-06T10:41:24.802Z,51.18
2023-05-06T10:42:24.914Z,50.39
2023-05-06T10:43:25.007Z,50.30
2023-05-06T10:44:25.076Z,50.59
2023-05-06T10:45:25.161Z,51.12
2023-05-06T10:46:25.228Z,50.70
2023-05-06T10:47:25.332Z,50.93
2023-05-06T10:48:25.427Z,52.25
2023-05-06T10:49:25.493Z,50.87
2023-05-06T10:50:25.595Z,50.38
2023-05-06T10:51:25.696Z,52.46
2023-05-06T10:52:25.861Z,51.84
2023-05-06T10:53:25.856Z,52.87
2023-05-06T10:54:25.952Z,52.31
2023-05-06T10:55:26.040Z,52.31
2023-05-06T10:56:26.119Z,51.70
2023-05-06T10:57:26.228Z,50.06
2023-05-06T10:58:26.282Z,50.25
2023-05-06T10:59:26.374Z,51.62
2023-05-06T11:00:26.472Z,51.93
2023-05-06T11:01:26.696Z,50.81
2023-05-06T11:02:26.779Z,50.62
2023-05-06T11:03:26.805Z,51.14
2023-05-06T11:04:26.844Z,50.91
2023-05-06T11:05:26.951Z,50.40
2023-05-06T11:06:27.081Z,49.42
2023-05-06T11:07:27.208Z,50.60
2023-05-06T11:08:27.352Z,49.64
2023-05-06T11:09:27.480Z,49.91
2023-05-06T11:10:27.578Z,49.73
2023-05-06T11:11:27.690Z,48.86
2023-05-06T11:12:27.798Z,48.48
2023-05-06T11:13:28.272Z,47.90
2023-05-06T11:14:27.883Z,47.92
2023-05-06T11:15:27.832Z,48.66
2023-05-06T11:16:27.792Z,46.88
2023-05-06T11:17:27.725Z,45.98
2023-05-06T11:18:27.650Z,46.35
2023-05-06T11:19:27.569Z,46.76
2023-05-06T11:20:27.702Z,48.40
2023-05-06T11:21:27.773Z,47.62
2023-05-06T11:22:27.891Z,48.57
2023-05-06T11:23:27.987Z,48.21
2023-05-06T11:24:28.136Z,48.95
2023-05-06T11:25:28.185Z,49.67
2023-05-06T11:26:28.283Z,48.83
2023-05-06T11:27:28.386Z,48.42
2023-05-06T11:28:28.483Z,47.95
2023-05-06T11:29:28.599Z,47.79
2023-05-06T11:30:28.677Z,47.66
2023-05-06T11:31:28.845Z,47.11
2023-05-06T11:32:28.885Z,48.06
2023-05-06T11:33:28.956Z,46.89
2023-05-06T11:34:29.048Z,46.73
2023-05-06T11:35:29.133Z,46.86
2023-05-06T11:36:29.362Z,46.85
2023-05-06T11:37:29.437Z,48.22
2023-05-06T11:38:29.575Z,47.70
2023-05-06T11:39:29.684Z,46.61
2023-05-06T11:40:29.874Z,46.10
2023-05-06T11:41:29.906Z,46.17
2023-05-06T11:42:29.986Z,46.80
2023-05-06T11:43:30.040Z,46.35
2023-05-06T11:44:30.178Z,45.66
2023-05-06T11:45:30.276Z,44.28
2023-05-06T11:46:30.451Z,45.89
2023-05-06T11:47:30.501Z,44.91
2023-05-06T11:48:30.595Z,45.18
2023-05-06T11:49:30.684Z,44.03
2023-05-06T11:50:30.779Z,44.90
2023-05-06T11:51:30.880Z,44.42
2023-05-06T11:52:30.959Z,44.54
2023-05-06T11:53:31.019Z,44.31
2023-05-06T11:54:31.108Z,44.09
2023-05-06T11:55:31.209Z,43.37
2023-05-06T11:56:31.354Z,45.28
2023-05-06T11:57:31.365Z,42.52
2023-05-06T11:58:31.474Z,42.12
2023-05-06T11:59:31.602Z,43.39
2023-05-06T12:00:31.673Z,43.54
2023-05-06T12:01:31.785Z,43.66
2023-05-06T12:02:31.998Z,43.88
2023-05-06T12:03:32.190Z,44.56
2023-05-06T12:04:32.130Z,43.89
2023-05-06T12:05:32.306Z,43.67
2023-05-06T12:06:32.410Z,44.42
2023-05-06T12:07:32.523Z,43.96
2023-05-06T12:08:32.628Z,44.97
2023-05-06T12:09:32.699Z,44.63
2023-05-06T12:10:32.782Z,44.44
2023-05-06T12:11:32.896Z,44.00
2023-05-06T12:12:33.091Z,42.95
2023-05-06T12:13:33.072Z,42.90
2023-05-06T12:14:33.147Z,42.79
2023-05-06T12:15:33.278Z,42.11
2023-05-06T12:16:33.308Z,42.39
2023-05-06T12:17:33.491Z,43.43
2023-05-06T12:18:33.596Z,44.36
2023-05-06T12:19:33.747Z,41.75
2023-05-06T12:20:33.772Z,41.80
2023-05-06T12:21:33.937Z,41.53
2023-05-06T12:22:33.977Z,40.86
2023-05-06T12:23:34.112Z,40.01
2023-05-06T12:24:34.093Z,39.80
2023-05-06T12:25:34.181Z,40.42
2023-05-06T12:26:34.254Z,40.70
2023-05-06T12:27:34.353Z,40.77
2023-05-06T12:28:34.420Z,41.48
2023-05-06T12:29:34.501Z,40.05
2023-05-06T12:30:34.587Z,39.85
2023-05-06T12:31:34.696Z,39.67
2023-05-06T12:32:34.726Z,39.79
2023-05-06T12:33:34.817Z,39.74
2023-05-06T12:34:34.973Z,38.72
2023-05-06T12:35:35.030Z,39.46
2023-05-06T12:36:35.070Z,36.24
2023-05-06T12:37:35.196Z,36.77
2023-05-06T12:38:35.365Z,37.25
2023-05-06T12:39:35.428Z,36.58
2023-05-06T12:40:35.519Z,37.08
2023-05-06T12:41:35.612Z,37.33
2023-05-06T12:42:35.690Z,36.51
2023-05-06T12:43:35.834Z,36.28
2023-05-06T12:44:35.947Z,36.08
2023-05-06T12:45:36.080Z,36.89
2023-05-06T12:46:36.098Z,36.15
2023-05-06T12:47:36.272Z,35.81
2023-05-06T12:48:36.298Z,35.73
2023-05-06T12:49:36.442Z,35.74
2023-05-06T12:50:36.468Z,36.18
2023-05-06T12:51:36.648Z,35.83
2023-05-06T12:52:36.710Z,35.05